Time;durP1;ratioP1;P1;durP2;ratioP2;P2;SDS_P1;SDS_P2;PMS_P1;PMS_P2;Temp;Humidity;BMP_temperature;BMP_pressure;BME280_temperature;BME280_humidity;BME280_pressure;Samples;Min_cycle;Max_cycle;Signal;HPM_P1;HPM_P2
2024/04/08 00:01:17;;;;;;;2.42;0.75;;;16.20;91.70;;;;;;4974978;28;20027;-79
2024/04/08 00:03:43;;;;;;;2.25;0.80;;;16.30;91.80;;;;;;4957397;28;20403;-80
2024/04/08 00:06:08;;;;;;;2.10;0.80;;;16.20;91.70;;;;;;4957661;28;20023;-80
2024/04/08 00:08:34;;;;;;;1.58;0.68;;;16.20;91.70;;;;;;4974897;28;20023;-80
2024/04/08 00:11:07;;;;;;;2.30;0.80;;;16.20;91.70;;;;;;4957499;28;20073;-80
2024/04/08 00:13:37;;;;;;;2.10;0.90;;;16.20;91.70;;;;;;4974486;28;20027;-80
2024/04/08 00:16:04;;;;;;;1.40;0.80;;;16.20;91.70;;;;;;4973553;28;20023;-80
2024/04/08 00:18:29;;;;;;;2.28;0.70;;;16.20;92.00;;;;;;4974668;28;20050;-80
2024/04/08 00:21:05;;;;;;;2.13;0.73;;;16.10;91.70;;;;;;4974481;28;20065;-80
2024/04/08 00:23:31;;;;;;;2.05;0.90;;;16.20;91.70;;;;;;4957195;28;20046;-79
2024/04/08 00:26:02;;;;;;;1.95;0.70;;;16.20;91.70;;;;;;4974178;28;20031;-79
2024/04/08 00:28:27;;;;;;;0.93;0.57;;;16.20;91.70;;;;;;4957445;28;20474;-79
2024/04/08 00:31:03;;;;;;;2.90;0.75;;;16.20;91.70;;;;;;4956837;28;20049;-79
2024/04/08 00:33:29;;;;;;;1.08;0.60;;;16.20;91.70;;;;;;4957208;28;20023;-80
2024/04/08 00:35:55;;;;;;;2.00;0.95;;;16.20;91.70;;;;;;4974253;28;20023;-79
2024/04/08 00:38:20;;;;;;;2.00;0.80;;;16.20;91.70;;;;;;4957046;28;20029;-79
2024/04/08 00:40:46;;;;;;;2.28;0.80;;;16.20;91.70;;;;;;4974153;28;20030;-80
2024/04/08 00:43:12;;;;;;;1.30;0.70;;;16.30;91.70;;;;;;4972938;28;20122;-79
2024/04/08 00:45:40;;;;;;;1.88;0.68;;;16.20;91.70;;;;;;4974262;28;20027;-79
2024/04/08 00:48:07;;;;;;;2.20;0.80;;;16.20;91.70;;;;;;4956840;28;20027;-79
2024/04/08 00:50:35;;;;;;;1.67;0.90;;;16.20;91.70;;;;;;4973703;28;20023;-80
2024/04/08 00:53:01;;;;;;;1.60;0.60;;;16.20;91.70;;;;;;4956733;28;20476;-79
2024/04/08 00:55:27;;;;;;;1.42;0.70;;;16.30;91.80;;;;;;4956793;28;20527;-80
2024/04/08 00:57:55;;;;;;;2.10;0.70;;;16.20;91.70;;;;;;4956317;28;20059;-79
2024/04/08 01:00:20;;;;;;;1.77;0.80;;;16.10;91.70;;;;;;4956494;28;20058;-79
2024/04/08 01:02:46;;;;;;;2.05;0.77;;;16.20;91.70;;;;;;4956538;28;20563;-79
2024/04/08 01:05:14;;;;;;;1.65;0.80;;;16.20;91.70;;;;;;4973965;28;20027;-80
2024/04/08 01:07:41;;;;;;;2.22;0.98;;;16.20;91.70;;;;;;4956635;28;20026;-80
2024/04/08 01:10:08;;;;;;;1.90;0.68;;;16.20;91.70;;;;;;4973285;28;20022;-79
2024/04/08 01:12:34;;;;;;;2.25;0.80;;;16.20;91.70;;;;;;4956371;28;20476;-79
2024/04/08 01:14:59;;;;;;;1.60;0.60;;;16.10;91.90;;;;;;4956303;28;20130;-78
2024/04/08 01:17:25;;;;;;;2.30;0.80;;;16.20;91.70;;;;;;4973749;28;20109;-80
2024/04/08 01:19:50;;;;;;;1.92;0.80;;;16.30;91.80;;;;;;4973576;28;20109;-79
2024/04/08 01:22:16;;;;;;;1.55;0.70;;;16.10;91.70;;;;;;4972749;28;20033;-79
2024/04/08 01:24:41;;;;;;;1.58;0.70;;;16.30;91.80;;;;;;4956786;28;20030;-79
2024/04/08 01:27:07;;;;;;;2.72;0.80;;;16.20;91.70;;;;;;4973586;28;20638;-78
2024/04/08 01:29:35;;;;;;;2.33;0.90;;;16.10;91.70;;;;;;4973521;28;20026;-79
2024/04/08 01:32:02;;;;;;;1.13;0.68;;;16.20;91.70;;;;;;4973555;28;20019;-79
2024/04/08 01:34:27;;;;;;;2.53;0.80;;;16.30;91.80;;;;;;4973799;28;20102;-80
2024/04/08 01:36:53;;;;;;;1.88;0.73;;;16.10;91.70;;;;;;4973670;28;20167;-79
2024/04/08 01:39:19;;;;;;;1.67;0.70;;;16.30;91.80;;;;;;4973566;28;20081;-79
2024/04/08 01:41:45;;;;;;;1.50;0.90;;;16.20;91.70;;;;;;4973398;28;20027;-80
2024/04/08 01:44:10;;;;;;;2.20;0.70;;;16.20;91.70;;;;;;4973329;28;20070;-79
2024/04/08 01:46:36;;;;;;;2.17;0.80;;;16.20;91.70;;;;;;4973633;28;20484;-79
2024/04/08 01:49:01;;;;;;;1.58;0.70;;;16.20;91.70;;;;;;4973484;28;20117;-78
2024/04/08 01:51:27;;;;;;;1.63;0.77;;;16.10;91.70;;;;;;4973473;28;20030;-79
2024/04/08 01:53:53;;;;;;;1.38;0.70;;;16.20;91.70;;;;;;4973183;28;20027;-80
2024/04/08 01:56:18;;;;;;;1.88;0.60;;;16.20;91.70;;;;;;4956086;28;20118;-79
2024/04/08 01:58:44;;;;;;;1.50;0.75;;;16.10;91.70;;;;;;4973398;28;20027;-79
2024/04/08 02:01:09;;;;;;;1.80;0.70;;;16.10;91.70;;;;;;4955880;28;20023;-78
2024/04/08 02:03:35;;;;;;;1.60;0.70;;;16.20;91.90;;;;;;4973171;28;20082;-80
2024/04/08 02:06:00;;;;;;;1.45;0.80;;;16.20;91.70;;;;;;4973327;28;20443;-79
2024/04/08 02:08:26;;;;;;;2.22;0.90;;;16.10;91.70;;;;;;4971977;28;20089;-78
2024/04/08 02:10:52;;;;;;;1.08;0.70;;;16.20;91.70;;;;;;4973663;28;20023;-77
2024/04/08 02:13:18;;;;;;;1.80;0.90;;;16.10;91.70;;;;;;4976711;28;20035;-78
2024/04/08 02:15:43;;;;;;;2.20;0.70;;;16.20;91.70;;;;;;4959458;28;20081;-78
2024/04/08 02:18:09;;;;;;;1.05;0.63;;;16.20;91.70;;;;;;4976760;28;20472;-78
2024/04/08 02:20:39;;;;;;;1.45;0.60;;;16.10;91.70;;;;;;4959209;28;20081;-77
2024/04/08 02:23:05;;;;;;;2.25;0.70;;;16.30;91.70;;;;;;4976348;28;20038;-77
2024/04/08 02:25:36;;;;;;;1.42;0.60;;;16.10;91.70;;;;;;4959117;28;20026;-79
2024/04/08 02:28:02;;;;;;;2.83;0.80;;;16.20;91.70;;;;;;4959302;28;20035;-80
2024/04/08 02:30:27;;;;;;;2.35;0.70;;;16.20;91.70;;;;;;4976145;28;20502;-77
2024/04/08 02:32:53;;;;;;;1.70;0.80;;;16.00;91.70;;;;;;4975114;28;20026;-79
2024/04/08 02:35:18;;;;;;;2.30;0.80;;;16.20;91.70;;;;;;4976480;28;20030;-79
2024/04/08 02:37:44;;;;;;;1.70;0.70;;;16.10;91.70;;;;;;4959501;28;20037;-79
2024/04/08 02:40:10;;;;;;;0.77;0.50;;;16.10;91.90;;;;;;4959015;28;20030;-79
2024/04/08 02:42:36;;;;;;;2.03;0.82;;;16.20;91.70;;;;;;4976519;28;20023;-79
2024/04/08 02:45:03;;;;;;;1.88;0.70;;;16.10;91.70;;;;;;4976215;28;20027;-79
2024/04/08 02:47:28;;;;;;;1.08;0.70;;;16.20;91.70;;;;;;4959286;28;20042;-79
2024/04/08 02:49:54;;;;;;;1.65;0.70;;;16.20;91.70;;;;;;4975743;28;20503;-79
2024/04/08 02:52:20;;;;;;;1.38;0.63;;;16.10;91.70;;;;;;4976185;28;20031;-80
2024/04/08 02:54:45;;;;;;;1.00;0.68;;;16.10;91.70;;;;;;4958796;28;20114;-79
2024/04/08 02:57:11;;;;;;;1.58;0.60;;;16.20;91.70;;;;;;4976298;28;20026;-79
2024/04/08 02:59:36;;;;;;;1.48;0.73;;;16.20;91.70;;;;;;4975835;28;20070;-79
2024/04/08 03:02:02;;;;;;;1.85;0.80;;;16.20;91.70;;;;;;4976244;28;20031;-77
2024/04/08 03:04:28;;;;;;;1.52;0.70;;;16.10;91.70;;;;;;4958473;28;20128;-77
2024/04/08 03:06:53;;;;;;;1.40;0.75;;;16.20;91.70;;;;;;4975755;28;20076;-80
2024/04/08 03:09:19;;;;;;;1.95;0.70;;;16.20;91.70;;;;;;4974806;28;20165;-78
2024/04/08 03:11:45;;;;;;;0.90;0.70;;;16.20;91.70;;;;;;4974525;28;20061;-78
2024/04/08 03:14:11;;;;;;;1.15;0.68;;;16.30;91.70;;;;;;4975630;28;20775;-78
2024/04/08 03:16:37;;;;;;;1.35;0.57;;;16.20;91.70;;;;;;4958173;28;20045;-78
2024/04/08 03:19:03;;;;;;;1.25;0.63;;;16.20;91.70;;;;;;4956679;28;20026;-79
2024/04/08 03:21:28;;;;;;;1.00;0.70;;;16.20;91.70;;;;;;4974097;28;20034;-79
2024/04/08 03:23:54;;;;;;;2.72;0.80;;;16.10;91.70;;;;;;4954197;28;20042;-79
2024/04/08 03:26:20;;;;;;;2.78;0.85;;;16.10;91.70;;;;;;4974289;28;20035;-80
2024/04/08 03:28:45;;;;;;;1.05;0.60;;;16.20;91.70;;;;;;4974848;28;20034;-79
2024/04/08 03:31:13;;;;;;;1.83;0.80;;;16.20;91.70;;;;;;4957109;28;20019;-79
2024/04/08 03:33:39;;;;;;;2.17;0.80;;;16.20;91.70;;;;;;4958146;28;20037;-80
2024/04/08 03:36:09;;;;;;;1.23;0.65;;;16.10;91.70;;;;;;4974889;28;20384;-78
2024/04/08 03:38:35;;;;;;;1.65;0.70;;;16.20;91.70;;;;;;4960962;28;20499;-79
2024/04/08 03:41:05;;;;;;;1.40;0.60;;;16.20;91.70;;;;;;4968391;28;20093;-79
2024/04/08 03:43:31;;;;;;;1.52;0.80;;;16.10;91.70;;;;;;4954402;29;20027;-82
2024/04/08 03:45:57;;;;;;;1.45;0.65;;;16.20;91.70;;;;;;4954705;28;20030;-79
2024/04/08 03:48:24;;;;;;;1.55;0.70;;;16.10;91.70;;;;;;4961890;28;20034;-80
2024/04/08 03:50:49;;;;;;;1.15;0.70;;;16.00;91.60;;;;;;4939151;28;20023;-80
2024/04/08 03:53:15;;;;;;;1.30;0.63;;;16.20;91.70;;;;;;4954686;28;20058;-81
2024/04/08 03:55:41;;;;;;;1.60;0.70;;;16.20;91.70;;;;;;4954359;29;20038;-81
2024/04/08 03:58:07;;;;;;;1.88;0.65;;;16.20;91.70;;;;;;4938082;29;20469;-79
2024/04/08 04:00:32;;;;;;;1.35;0.70;;;16.20;91.70;;;;;;4954259;28;20035;-79
2024/04/08 04:02:58;;;;;;;1.98;0.70;;;16.20;91.70;;;;;;4955368;29;20115;-78
2024/04/08 04:05:23;;;;;;;1.50;0.80;;;16.00;91.70;;;;;;4955056;29;20062;-80
2024/04/08 04:07:52;;;;;;;1.35;0.80;;;16.20;91.70;;;;;;4939171;29;20069;-80
2024/04/08 04:10:18;;;;;;;1.90;0.75;;;16.20;91.70;;;;;;4954648;28;20027;-79
2024/04/08 04:12:44;;;;;;;1.73;0.70;;;16.10;91.70;;;;;;4952489;29;20030;-81
2024/04/08 04:15:12;;;;;;;1.58;0.60;;;16.10;91.70;;;;;;4937026;29;20038;-79
2024/04/08 04:17:41;;;;;;;0.73;0.60;;;16.10;91.70;;;;;;4952754;29;20031;-79
2024/04/08 04:21:49;;;;;;;0.60;0.50;;;16.10;91.70;;;;;;5541437;25;20343;-79
2024/04/08 04:24:14;;;;;;;1.40;0.70;;;16.10;91.70;;;;;;5527442;25;20600;-78
2024/04/08 04:26:40;;;;;;;1.30;0.52;;;16.20;91.70;;;;;;5540656;25;20000;-79
2024/04/08 04:29:06;;;;;;;1.88;0.73;;;16.10;91.70;;;;;;5540825;25;20000;-80
2024/04/08 04:31:42;;;;;;;1.27;0.70;;;16.00;91.70;;;;;;5540789;25;20339;-80
2024/04/08 04:34:08;;;;;;;1.67;0.73;;;16.10;91.70;;;;;;5540715;25;19989;-79
2024/04/08 04:36:33;;;;;;;1.17;0.60;;;16.20;91.70;;;;;;5540126;25;20337;-79
2024/04/08 04:38:59;;;;;;;1.58;0.70;;;16.20;91.70;;;;;;5540132;25;20053;-80
2024/04/08 04:41:25;;;;;;;1.20;0.60;;;16.10;91.70;;;;;;5541426;25;19994;-79
2024/04/08 04:43:51;;;;;;;2.40;0.90;;;16.10;91.70;;;;;;5540167;25;20001;-79
2024/04/08 04:46:17;;;;;;;1.20;0.60;;;16.20;91.70;;;;;;5539603;25;19989;-78
2024/04/08 04:48:42;;;;;;;1.70;0.70;;;16.00;91.60;;;;;;5539967;25;20005;-78
2024/04/08 04:51:09;;;;;;;1.70;0.60;;;16.10;91.70;;;;;;5539545;25;20004;-80
2024/04/08 04:53:35;;;;;;;1.33;0.60;;;16.20;91.70;;;;;;5539668;25;20004;-79
2024/04/08 04:56:01;;;;;;;1.60;0.73;;;16.20;91.70;;;;;;5541650;25;20171;-79
2024/04/08 04:58:26;;;;;;;2.03;0.70;;;16.20;91.70;;;;;;5542006;25;20007;-79
2024/04/08 05:00:52;;;;;;;1.20;0.60;;;16.10;91.70;;;;;;5539603;25;19993;-79
2024/04/08 05:03:19;;;;;;;1.08;0.60;;;16.20;91.70;;;;;;5539473;25;20072;-80
2024/04/08 05:05:52;;;;;;;2.08;0.68;;;16.10;91.70;;;;;;5542040;25;20004;-78
2024/04/08 05:08:20;;;;;;;0.88;0.60;;;16.10;91.70;;;;;;5540896;25;20005;-80
2024/04/08 05:10:45;;;;;;;1.30;0.70;;;16.10;91.70;;;;;;5541103;25;20033;-80
2024/04/08 05:13:11;;;;;;;1.25;0.80;;;16.20;91.70;;;;;;5539823;25;20000;-78
2024/04/08 05:15:37;;;;;;;1.45;0.60;;;16.10;91.70;;;;;;5539446;25;20076;-78
2024/04/08 05:18:02;;;;;;;1.77;0.70;;;16.20;91.70;;;;;;5541759;25;20005;-78
2024/04/08 05:20:29;;;;;;;0.65;0.47;;;16.20;91.70;;;;;;5541730;25;20029;-80
2024/04/08 05:22:55;;;;;;;1.27;0.63;;;16.10;91.70;;;;;;5541254;25;20001;-77
2024/04/08 05:25:21;;;;;;;1.35;0.70;;;16.20;91.70;;;;;;5539633;25;20046;-80
2024/04/08 05:27:46;;;;;;;0.68;0.60;;;16.10;91.70;;;;;;5541260;25;20001;-76
2024/04/08 05:30:12;;;;;;;1.60;0.60;;;16.10;91.70;;;;;;5540903;25;20036;-77
2024/04/08 05:32:38;;;;;;;2.13;0.70;;;16.20;91.80;;;;;;5525583;25;20072;-78
2024/04/08 05:35:04;;;;;;;1.38;0.57;;;16.20;91.80;;;;;;5524230;26;20386;-79
2024/04/08 05:37:29;;;;;;;1.70;0.63;;;16.10;91.70;;;;;;5524921;26;20449;-77
2024/04/08 05:39:55;;;;;;;2.25;0.82;;;16.20;91.70;;;;;;5523476;26;19994;-78
2024/04/08 05:42:21;;;;;;;2.05;0.70;;;16.20;91.80;;;;;;5523404;26;20069;-78
2024/04/08 05:44:49;;;;;;;1.83;0.80;;;16.20;91.80;;;;;;5522850;26;19993;-78
2024/04/08 05:47:14;;;;;;;1.90;0.80;;;16.20;91.70;;;;;;5523578;26;20069;-78
2024/04/08 05:49:40;;;;;;;2.15;0.68;;;16.10;91.70;;;;;;5523000;26;20048;-77
2024/04/08 05:52:06;;;;;;;2.85;0.70;;;16.20;91.70;;;;;;5522803;25;20008;-78
2024/04/08 05:54:31;;;;;;;1.73;0.80;;;16.30;91.70;;;;;;5524320;25;20000;-78
2024/04/08 05:56:58;;;;;;;1.77;0.75;;;16.20;91.60;;;;;;5522968;26;20030;-78
2024/04/08 05:59:26;;;;;;;1.70;0.80;;;16.20;91.60;;;;;;5522758;26;20049;-78
2024/04/08 06:01:52;;;;;;;2.47;0.85;;;16.30;91.60;;;;;;5523905;25;20084;-78
2024/04/08 06:04:18;;;;;;;2.50;0.90;;;16.20;91.60;;;;;;5522606;25;19997;-80
2024/04/08 06:06:43;;;;;;;1.80;0.90;;;16.20;91.60;;;;;;5522432;26;19997;-78
2024/04/08 06:09:10;;;;;;;1.55;0.82;;;16.20;91.50;;;;;;5523387;26;20073;-78
2024/04/08 06:11:35;;;;;;;2.08;0.70;;;16.20;91.50;;;;;;5522698;26;20021;-78
2024/04/08 06:14:01;;;;;;;2.33;0.88;;;16.20;91.50;;;;;;5523788;26;20009;-78
2024/04/08 06:16:27;;;;;;;1.35;0.70;;;16.20;91.50;;;;;;5522902;26;19997;-78
2024/04/08 06:18:53;;;;;;;1.58;0.60;;;16.20;91.50;;;;;;5522811;26;19993;-79
2024/04/08 06:21:18;;;;;;;1.13;0.70;;;16.30;91.50;;;;;;5522440;26;20468;-78
2024/04/08 06:23:44;;;;;;;2.28;0.90;;;16.30;91.40;;;;;;5523292;26;19993;-79
2024/04/08 06:26:10;;;;;;;1.92;0.80;;;16.30;91.40;;;;;;5524346;26;20064;-78
2024/04/08 06:28:36;;;;;;;1.67;0.80;;;16.30;91.40;;;;;;5524512;26;20012;-79
2024/04/08 06:31:02;;;;;;;1.75;0.95;;;16.30;91.50;;;;;;5521695;26;20848;-77
2024/04/08 06:33:29;;;;;;;1.83;0.80;;;16.30;91.40;;;;;;5525249;26;20001;-78
2024/04/08 06:35:54;;;;;;;1.08;0.70;;;16.20;91.40;;;;;;5522763;26;20005;-79
2024/04/08 06:38:21;;;;;;;0.95;0.65;;;16.40;91.40;;;;;;5522939;26;20001;-79
2024/04/08 06:40:46;;;;;;;2.00;0.80;;;16.30;91.40;;;;;;5522329;26;19994;-77
2024/04/08 06:43:12;;;;;;;1.38;0.80;;;16.30;91.40;;;;;;5522918;26;20057;-78
2024/04/08 06:45:37;;;;;;;1.77;0.80;;;16.20;91.40;;;;;;5502941;26;20531;-78
2024/04/08 06:48:03;;;;;;;1.20;0.60;;;16.30;91.40;;;;;;5486177;26;20000;-77
2024/04/08 06:50:29;;;;;;;1.38;0.70;;;16.30;91.40;;;;;;5487232;26;20441;-79
2024/04/08 06:52:54;;;;;;;1.00;0.70;;;16.20;91.30;;;;;;5485909;26;19998;-78
2024/04/08 06:55:20;;;;;;;1.23;0.63;;;16.30;91.40;;;;;;5486272;26;19993;-79
2024/04/08 06:57:46;;;;;;;1.77;0.63;;;16.40;91.40;;;;;;5485441;26;19990;-79
2024/04/08 07:00:12;;;;;;;1.63;0.80;;;16.30;91.30;;;;;;5485424;26;20711;-78
2024/04/08 07:02:38;;;;;;;1.08;0.73;;;16.40;91.30;;;;;;5486009;26;19994;-77
2024/04/08 07:05:07;;;;;;;0.70;0.55;;;16.40;91.30;;;;;;5486999;26;19991;-78
2024/04/08 07:07:33;;;;;;;1.73;0.98;;;16.40;91.30;;;;;;5487111;26;19998;-78
2024/04/08 07:09:59;;;;;;;1.67;0.80;;;16.30;91.30;;;;;;5487069;26;19994;-77
2024/04/08 07:12:24;;;;;;;1.08;0.70;;;16.40;91.30;;;;;;5487492;26;20033;-77
2024/04/08 07:14:52;;;;;;;1.17;0.63;;;16.40;91.30;;;;;;5486845;26;20935;-77
2024/04/08 07:17:17;;;;;;;2.33;0.95;;;16.40;91.30;;;;;;5486939;26;19994;-78
2024/04/08 07:19:44;;;;;;;2.45;0.75;;;16.40;91.30;;;;;;5486364;26;20009;-78
2024/04/08 07:22:10;;;;;;;1.50;0.80;;;16.40;91.30;;;;;;5484883;26;20041;-78
2024/04/08 07:24:35;;;;;;;1.75;0.70;;;16.40;91.30;;;;;;5486560;26;20407;-77
2024/04/08 07:27:05;;;;;;;2.08;0.70;;;16.50;91.30;;;;;;5485340;26;19998;-78
2024/04/08 07:29:31;;;;;;;2.95;0.90;;;16.40;91.30;;;;;;5487385;26;19994;-78
2024/04/08 07:31:56;;;;;;;2.25;0.80;;;16.40;91.30;;;;;;5486459;26;20006;-78
2024/04/08 07:34:22;;;;;;;2.50;0.90;;;16.40;91.30;;;;;;5486425;26;20066;-78
2024/04/08 07:36:47;;;;;;;2.10;0.82;;;16.50;91.30;;;;;;5486539;26;20528;-78
2024/04/08 07:39:13;;;;;;;1.20;0.85;;;16.40;91.30;;;;;;5484561;26;20338;-78
2024/04/08 07:41:39;;;;;;;1.45;0.77;;;16.40;91.30;;;;;;5485066;26;20005;-78
2024/04/08 07:44:07;;;;;;;1.58;0.70;;;16.40;91.30;;;;;;5485246;26;20001;-79
2024/04/08 07:46:32;;;;;;;0.73;0.60;;;16.40;91.30;;;;;;5486282;26;20002;-78
2024/04/08 07:48:58;;;;;;;2.50;0.70;;;16.40;91.30;;;;;;5485050;26;20241;-77
2024/04/08 07:51:23;;;;;;;1.65;0.93;;;16.40;91.30;;;;;;5486452;26;19994;-78
2024/04/08 07:53:49;;;;;;;2.08;0.63;;;16.40;91.30;;;;;;5484478;26;19990;-78
2024/04/08 07:56:15;;;;;;;2.03;0.70;;;16.30;91.30;;;;;;5483402;26;19990;-78
2024/04/08 07:58:40;;;;;;;1.05;0.70;;;16.40;91.30;;;;;;5484468;26;19994;-78
2024/04/08 08:01:07;;;;;;;1.25;0.70;;;16.40;91.30;;;;;;5486665;26;20005;-77
2024/04/08 08:03:34;;;;;;;0.95;0.73;;;16.40;91.30;;;;;;5484302;26;20013;-78
2024/04/08 08:05:59;;;;;;;1.05;0.77;;;16.30;91.30;;;;;;5486833;26;20009;-78
2024/04/08 08:08:25;;;;;;;1.60;0.80;;;16.40;91.40;;;;;;5486298;26;19997;-78
2024/04/08 08:10:51;;;;;;;2.35;0.90;;;16.40;91.30;;;;;;5485790;26;19998;-78
2024/04/08 08:13:17;;;;;;;1.08;0.60;;;16.40;91.30;;;;;;5485510;26;20005;-77
2024/04/08 08:15:42;;;;;;;1.58;0.77;;;16.40;91.30;;;;;;5484400;26;20669;-78
2024/04/08 08:18:08;;;;;;;1.08;0.60;;;16.40;91.30;;;;;;5484879;26;20038;-77
2024/04/08 08:20:33;;;;;;;1.88;0.85;;;16.40;91.30;;;;;;5485671;26;19994;-80
2024/04/08 08:23:00;;;;;;;1.38;0.80;;;16.30;91.20;;;;;;5485822;26;19998;-79
2024/04/08 08:25:29;;;;;;;1.25;0.70;;;16.30;91.20;;;;;;5486438;26;20066;-79
2024/04/08 08:27:55;;;;;;;1.80;0.80;;;16.40;91.20;;;;;;5484379;26;19994;-77
2024/04/08 08:30:21;;;;;;;1.55;0.80;;;16.50;91.20;;;;;;5483795;26;20005;-78
2024/04/08 08:32:50;;;;;;;1.58;0.73;;;16.50;91.10;;;;;;5486327;26;20006;-79
2024/04/08 08:35:18;;;;;;;1.65;0.70;;;16.60;91.10;;;;;;5486047;26;19994;-78
2024/04/08 08:37:44;;;;;;;0.98;0.70;;;16.60;91.10;;;;;;5485927;26;20077;-78
2024/04/08 08:40:09;;;;;;;1.05;0.60;;;16.60;91.00;;;;;;5485306;26;20005;-78
2024/04/08 08:42:35;;;;;;;2.03;0.90;;;16.60;91.00;;;;;;5485982;26;20431;-77
2024/04/08 08:45:03;;;;;;;1.00;0.70;;;16.60;90.90;;;;;;5485177;26;20010;-78
2024/04/08 08:47:29;;;;;;;1.52;0.80;;;16.60;90.90;;;;;;5483409;26;20002;-78
2024/04/08 08:49:57;;;;;;;2.45;0.82;;;16.70;91.00;;;;;;5485166;26;20066;-78
2024/04/08 08:52:24;;;;;;;2.00;0.60;;;16.50;90.90;;;;;;5485564;26;20018;-78
2024/04/08 08:54:53;;;;;;;1.33;0.73;;;16.50;90.90;;;;;;5485389;26;20338;-78
2024/04/08 08:57:19;;;;;;;1.30;0.70;;;16.70;90.90;;;;;;5484803;26;20006;-79
2024/04/08 08:59:50;;;;;;;1.33;0.70;;;16.60;90.90;;;;;;5483586;26;19994;-78
2024/04/08 09:02:16;;;;;;;0.95;0.70;;;16.60;90.90;;;;;;5483384;26;19998;-77
2024/04/08 09:04:42;;;;;;;1.00;0.70;;;16.70;91.00;;;;;;5484843;26;20082;-78
2024/04/08 09:07:09;;;;;;;1.50;0.88;;;16.60;90.90;;;;;;5484160;26;20002;-78
2024/04/08 09:09:35;;;;;;;1.15;0.77;;;16.70;90.90;;;;;;5488579;26;20005;-79
2024/04/08 09:12:01;;;;;;;1.55;0.80;;;16.70;90.90;;;;;;5488774;26;20559;-78
2024/04/08 09:14:30;;;;;;;0.98;0.70;;;16.70;90.90;;;;;;5486878;26;20009;-78
2024/04/08 09:17:10;;;;;;;1.38;0.75;;;16.70;90.80;;;;;;5488307;26;20002;-78
2024/04/08 09:19:36;;;;;;;0.77;0.68;;;16.80;90.90;;;;;;5488114;26;20005;-78
2024/04/08 09:22:03;;;;;;;1.58;0.80;;;16.80;90.80;;;;;;5487283;26;20047;-78
2024/04/08 09:24:30;;;;;;;0.70;0.63;;;16.80;90.80;;;;;;5488792;26;20009;-78
2024/04/08 09:26:56;;;;;;;1.08;0.70;;;16.80;90.80;;;;;;5488209;26;19998;-78
2024/04/08 09:29:21;;;;;;;0.90;0.70;;;16.80;90.80;;;;;;5486904;26;20070;-78
2024/04/08 09:31:47;;;;;;;1.40;0.70;;;16.80;90.80;;;;;;5486775;26;20009;-79
2024/04/08 09:34:13;;;;;;;1.25;0.68;;;16.80;90.80;;;;;;5486729;26;19991;-78
2024/04/08 09:36:42;;;;;;;1.33;0.73;;;16.80;90.80;;;;;;5488300;26;19994;-80
2024/04/08 09:39:11;;;;;;;0.85;0.60;;;16.80;90.80;;;;;;5487399;26;20002;-78
2024/04/08 09:41:37;;;;;;;1.02;0.70;;;16.80;90.80;;;;;;5486337;26;20331;-78
2024/04/08 09:44:03;;;;;;;0.73;0.68;;;16.80;90.80;;;;;;5486600;26;20009;-77
2024/04/08 09:46:29;;;;;;;1.33;0.70;;;16.80;90.70;;;;;;5486549;26;20035;-78
2024/04/08 09:48:54;;;;;;;1.35;0.88;;;16.90;90.70;;;;;;5486778;26;19994;-78
2024/04/08 09:51:20;;;;;;;1.38;0.80;;;16.90;90.60;;;;;;5488318;26;19994;-78
2024/04/08 09:53:46;;;;;;;1.45;0.80;;;17.00;90.50;;;;;;5486912;26;20239;-78
2024/04/08 09:56:16;;;;;;;1.40;0.80;;;17.10;90.40;;;;;;5486344;26;19998;-78
2024/04/08 09:58:51;;;;;;;0.70;0.57;;;17.10;90.40;;;;;;5486282;26;20339;-78
2024/04/08 10:01:19;;;;;;;1.00;0.60;;;17.10;90.30;;;;;;5487812;26;20005;-77
2024/04/08 10:03:51;;;;;;;1.45;0.70;;;17.10;90.30;;;;;;5486125;26;20465;-78
2024/04/08 10:06:18;;;;;;;1.90;0.73;;;17.20;90.20;;;;;;5487854;26;20057;-78
2024/04/08 10:08:47;;;;;;;1.23;0.70;;;17.30;90.20;;;;;;5486370;26;19994;-77
2024/04/08 10:11:14;;;;;;;1.35;0.80;;;17.20;90.20;;;;;;5487951;26;20009;-77
2024/04/08 10:13:47;;;;;;;1.08;0.70;;;17.20;90.20;;;;;;5487791;26;20008;-77
2024/04/08 10:16:13;;;;;;;1.08;0.80;;;17.20;90.10;;;;;;5486468;26;19994;-78
2024/04/08 10:18:52;;;;;;;1.40;0.90;;;17.30;90.20;;;;;;5485987;26;20009;-78
2024/04/08 10:21:19;;;;;;;1.38;0.60;;;17.30;90.20;;;;;;5485862;26;20005;-79
2024/04/08 10:23:45;;;;;;;1.05;0.70;;;17.30;90.20;;;;;;5488095;26;19994;-78
2024/04/08 10:26:13;;;;;;;1.25;0.80;;;17.30;90.20;;;;;;5487948;26;20481;-78
2024/04/08 10:28:42;;;;;;;1.80;1.00;;;17.20;90.20;;;;;;5487810;26;20006;-78
2024/04/08 10:31:08;;;;;;;1.30;0.75;;;17.30;90.20;;;;;;5487653;26;19998;-79
2024/04/08 10:33:34;;;;;;;1.13;0.63;;;17.20;90.10;;;;;;5488782;26;19994;-77
2024/04/08 10:36:01;;;;;;;2.20;0.80;;;17.20;90.10;;;;;;5485522;26;20742;-78
2024/04/08 10:38:30;;;;;;;1.25;0.70;;;17.20;90.10;;;;;;5488267;26;20002;-76
2024/04/08 10:41:03;;;;;;;1.13;0.80;;;17.30;90.10;;;;;;5487327;26;19990;-77
2024/04/08 10:43:32;;;;;;;1.42;0.65;;;17.40;90.10;;;;;;5486407;26;20078;-78
2024/04/08 10:45:57;;;;;;;1.52;0.73;;;17.40;90.00;;;;;;5487690;26;20025;-79
2024/04/08 10:48:23;;;;;;;1.38;0.77;;;17.40;90.00;;;;;;5485907;26;20038;-79
2024/04/08 10:50:48;;;;;;;1.00;0.63;;;17.40;90.00;;;;;;5485405;26;20034;-78
2024/04/08 10:53:16;;;;;;;1.48;0.57;;;17.40;90.00;;;;;;5488168;26;20001;-79
2024/04/08 10:55:41;;;;;;;1.25;0.73;;;17.40;90.00;;;;;;5485627;26;20453;-78
2024/04/08 10:58:08;;;;;;;1.15;0.70;;;17.40;90.00;;;;;;5487608;26;19994;-78
2024/04/08 11:00:33;;;;;;;1.50;0.80;;;17.40;90.00;;;;;;5485357;26;20018;-77
2024/04/08 11:02:59;;;;;;;1.98;0.90;;;17.40;90.00;;;;;;5488070;26;19994;-78
2024/04/08 11:05:25;;;;;;;1.88;0.70;;;17.40;90.10;;;;;;5487389;26;20005;-78
2024/04/08 11:07:51;;;;;;;1.08;0.70;;;17.40;90.10;;;;;;5487540;26;19994;-78
2024/04/08 11:10:18;;;;;;;1.40;0.63;;;17.40;90.10;;;;;;5487218;26;19994;-79
2024/04/08 11:12:44;;;;;;;1.42;0.80;;;17.40;90.10;;;;;;5485342;26;20001;-78
2024/04/08 11:15:12;;;;;;;1.20;0.68;;;17.50;90.10;;;;;;5485079;26;20009;-78
2024/04/08 11:17:37;;;;;;;1.02;0.60;;;17.40;90.00;;;;;;5485291;26;19998;-79
2024/04/08 11:20:07;;;;;;;2.25;0.70;;;17.40;90.00;;;;;;5485008;26;19998;-78
2024/04/08 11:22:34;;;;;;;1.23;0.70;;;17.40;90.00;;;;;;5485120;26;20005;-78
2024/04/08 11:25:02;;;;;;;0.95;0.70;;;17.50;90.00;;;;;;5485214;26;20010;-78
2024/04/08 11:27:27;;;;;;;0.60;0.60;;;17.50;90.00;;;;;;5485884;26;20066;-78
2024/04/08 11:29:53;;;;;;;1.73;0.70;;;17.40;90.00;;;;;;5483769;26;20002;-78
2024/04/08 11:32:23;;;;;;;1.13;0.68;;;17.30;90.00;;;;;;5485311;26;20874;-78
2024/04/08 11:34:49;;;;;;;1.73;0.70;;;17.30;90.00;;;;;;5485007;26;19998;-78
2024/04/08 11:37:15;;;;;;;0.60;0.60;;;17.40;90.10;;;;;;5484743;26;20010;-76
2024/04/08 11:39:43;;;;;;;1.17;0.70;;;17.50;90.10;;;;;;5485172;26;19990;-79
2024/04/08 11:42:09;;;;;;;1.15;0.70;;;17.30;90.00;;;;;;5485410;26;19994;-80
2024/04/08 11:44:40;;;;;;;1.00;0.68;;;17.50;90.10;;;;;;5485173;26;20034;-79
2024/04/08 11:47:07;;;;;;;1.00;0.67;;;17.50;90.10;;;;;;5485075;26;20438;-77
2024/04/08 11:49:33;;;;;;;1.52;0.80;;;17.50;90.10;;;;;;5484839;26;20223;-79
2024/04/08 11:52:03;;;;;;;1.35;0.80;;;17.50;90.10;;;;;;5484711;26;20434;-78
2024/04/08 11:54:29;;;;;;;1.05;0.70;;;17.50;90.10;;;;;;5484884;26;19994;-78
2024/04/08 11:56:54;;;;;;;0.93;0.60;;;17.50;90.10;;;;;;5484443;26;20005;-79
2024/04/08 11:59:20;;;;;;;1.13;0.70;;;17.40;90.10;;;;;;5484585;26;19994;-78
2024/04/08 12:01:48;;;;;;;0.98;0.60;;;17.40;90.10;;;;;;5484145;26;19998;-78
2024/04/08 12:04:14;;;;;;;1.80;0.90;;;17.40;90.10;;;;;;5485380;26;20072;-79
2024/04/08 12:06:40;;;;;;;1.10;0.65;;;17.50;90.10;;;;;;5486004;26;20022;-78
2024/04/08 12:09:06;;;;;;;0.70;0.60;;;17.40;90.10;;;;;;5486018;26;20508;-79
2024/04/08 12:11:32;;;;;;;1.67;1.00;;;17.50;90.10;;;;;;5486472;26;20006;-78
2024/04/08 12:13:57;;;;;;;1.25;0.70;;;17.50;90.10;;;;;;5485053;26;20005;-78
2024/04/08 12:16:23;;;;;;;1.35;0.75;;;17.50;90.10;;;;;;5484263;26;20328;-79
2024/04/08 12:18:49;;;;;;;1.20;0.80;;;17.50;90.10;;;;;;5485178;26;20006;-78
2024/04/08 12:21:14;;;;;;;1.42;0.70;;;17.30;90.10;;;;;;5483987;26;19990;-79
2024/04/08 12:23:40;;;;;;;0.90;0.80;;;17.50;90.10;;;;;;5486250;26;20327;-78
2024/04/08 12:26:07;;;;;;;0.95;0.80;;;17.50;90.10;;;;;;5484436;26;20005;-79
2024/04/08 12:28:33;;;;;;;1.20;0.70;;;17.50;90.10;;;;;;5486037;26;20026;-80
2024/04/08 12:30:58;;;;;;;0.80;0.60;;;17.50;90.10;;;;;;5484524;26;20165;-78
2024/04/08 12:33:24;;;;;;;1.92;0.90;;;17.50;90.10;;;;;;5483726;26;20010;-79
2024/04/08 12:35:49;;;;;;;0.95;0.70;;;17.30;90.10;;;;;;5483908;26;20002;-78
2024/04/08 12:38:15;;;;;;;1.38;0.80;;;17.50;90.20;;;;;;5485813;26;19998;-78
2024/04/08 12:40:41;;;;;;;1.20;0.60;;;17.50;90.20;;;;;;5483906;26;20014;-79
2024/04/08 12:43:07;;;;;;;1.52;0.70;;;17.40;90.20;;;;;;5487753;26;20006;-79
2024/04/08 12:45:33;;;;;;;1.35;0.70;;;17.50;90.20;;;;;;5488080;26;20474;-79